createdAt,value
2017-01-07T00:00:20.868Z,12.33
2017-01-07T00:01:20.874Z,12.33
2017-01-07T00:02:20.937Z,12.33
2017-01-07T00:03:21.337Z,12.23
2017-01-07T00:04:20.899Z,12.32
2017-01-07T00:05:20.962Z,12.42
2017-01-07T00:06:21.366Z,12.43
2017-01-07T00:07:21.371Z,12.61
2017-01-07T00:08:21.377Z,12.23
2017-01-07T00:09:21.386Z,12.33
2017-01-07T00:10:21.352Z,12.51
2017-01-07T00:11:21.352Z,12.43
2017-01-07T00:12:21.417Z,12.42
2017-01-07T00:13:21.472Z,12.51
2017-01-07T00:14:21.484Z,12.32
2017-01-07T00:15:20.989Z,12.51
2017-01-07T00:16:21.440Z,12.42
2017-01-07T00:17:21.109Z,12.32
2017-01-07T00:18:21.455Z,12.42
2017-01-07T00:19:21.117Z,12.42
2017-01-07T00:20:21.078Z,12.42
2017-01-07T00:21:21.431Z,12.23
2017-01-07T00:22:21.044Z,12.42
2017-01-07T00:23:21.446Z,12.71
2017-01-07T00:24:21.552Z,12.42
2017-01-07T00:25:21.063Z,12.51
2017-01-07T00:26:21.522Z,12.23
2017-01-07T00:27:21.478Z,12.32
2017-01-07T00:28:21.487Z,12.32
2017-01-07T00:29:21.544Z,12.42
2017-01-07T00:30:21.503Z,12.32
2017-01-07T00:31:21.509Z,12.23
2017-01-07T00:32:21.172Z,12.13
2017-01-07T00:33:21.574Z,12.51
2017-01-07T00:34:21.534Z,12.71
2017-01-07T00:35:21.200Z,12.61
2017-01-07T00:36:21.204Z,12.51
2017-01-07T00:37:21.557Z,12.23
2017-01-07T00:38:21.219Z,12.13
2017-01-07T00:39:21.227Z,12.23
2017-01-07T00:40:21.232Z,12.52
2017-01-07T00:41:21.544Z,12.62
2017-01-07T00:42:21.596Z,12.62
2017-01-07T00:43:21.604Z,12.51
2017-01-07T00:44:21.269Z,12.23
2017-01-07T00:45:21.720Z,12.23
2017-01-07T00:46:21.680Z,12.23
2017-01-07T00:47:21.242Z,12.23
2017-01-07T00:48:21.297Z,12.23
2017-01-07T00:49:21.255Z,12.13
2017-01-07T00:50:21.759Z,12.04
2017-01-07T00:51:21.373Z,12.43
2017-01-07T00:52:21.677Z,12.33
2017-01-07T00:53:21.335Z,12.52
2017-01-07T00:54:21.343Z,12.52
2017-01-07T00:55:21.698Z,12.42
2017-01-07T00:56:21.703Z,12.43
2017-01-07T00:57:21.320Z,12.33
2017-01-07T00:58:21.324Z,12.62
2017-01-07T00:59:21.729Z,12.32
2017-01-07T01:00:21.340Z,12.42
2017-01-07T01:01:21.346Z,12.42
2017-01-07T01:02:21.407Z,12.42
2017-01-07T01:03:21.364Z,12.51
2017-01-07T01:04:21.372Z,12.51
2017-01-07T01:05:21.775Z,12.52
2017-01-07T01:06:21.437Z,12.62
2017-01-07T01:07:21.395Z,12.32
2017-01-07T01:08:21.454Z,12.43
2017-01-07T01:09:21.460Z,12.32
2017-01-07T01:10:21.470Z,12.33
2017-01-07T01:11:21.426Z,12.43
2017-01-07T01:12:21.534Z,12.52
2017-01-07T01:13:21.494Z,12.23
2017-01-07T01:14:21.844Z,12.42
2017-01-07T01:15:21.903Z,12.42
2017-01-07T01:16:21.861Z,12.32
2017-01-07T01:17:21.869Z,12.13
2017-01-07T01:18:21.928Z,12.43
2017-01-07T01:19:21.936Z,12.23
2017-01-07T01:20:21.992Z,12.32
2017-01-07T01:21:21.556Z,12.42
2017-01-07T01:22:21.928Z,12.51
2017-01-07T01:23:21.570Z,12.23
2017-01-07T01:24:21.924Z,12.23
2017-01-07T01:25:21.981Z,12.23
2017-01-07T01:26:21.543Z,12.51
2017-01-07T01:27:21.947Z,12.51
2017-01-07T01:28:21.957Z,12.23
2017-01-07T01:29:21.616Z,12.42
2017-01-07T01:30:21.623Z,12.23
2017-01-07T01:31:22.030Z,12.51
2017-01-07T01:32:22.038Z,12.51
2017-01-07T01:33:21.601Z,12.61
2017-01-07T01:34:22.052Z,12.42
2017-01-07T01:35:22.059Z,12.42
2017-01-07T01:36:21.621Z,12.51
2017-01-07T01:37:21.628Z,12.32
2017-01-07T01:38:22.085Z,12.23
2017-01-07T01:39:21.696Z,12.32
2017-01-07T01:40:21.700Z,12.32
2017-01-07T01:41:21.710Z,12.32
2017-01-07T01:42:21.666Z,12.23
2017-01-07T01:43:22.069Z,12.51
2017-01-07T01:44:22.090Z,12.23
2017-01-07T01:45:22.087Z,12.51
2017-01-07T01:46:21.752Z,12.13
2017-01-07T01:47:21.705Z,12.42
2017-01-07T01:48:22.161Z,12.23
2017-01-07T01:49:22.122Z,12.23
2017-01-07T01:50:22.175Z,12.23
2017-01-07T01:51:22.134Z,12.32
2017-01-07T01:52:22.192Z,12.23
2017-01-07T01:53:21.751Z,12.13
2017-01-07T01:54:21.823Z,12.23
2017-01-07T01:55:21.771Z,12.32
2017-01-07T01:56:22.226Z,12.13
2017-01-07T01:57:22.231Z,12.23
2017-01-07T01:58:22.238Z,12.23
2017-01-07T01:59:22.245Z,12.32
2017-01-07T02:00:22.252Z,12.13
2017-01-07T02:01:22.212Z,12.23
2017-01-07T02:02:22.268Z,12.32
2017-01-07T02:03:21.830Z,12.23
2017-01-07T02:04:22.290Z,12.13
2017-01-07T02:05:21.895Z,12.32
2017-01-07T02:06:22.300Z,12.32
2017-01-07T02:07:21.916Z,12.32
2017-01-07T02:08:21.869Z,12.13
2017-01-07T02:09:22.323Z,12.03
2017-01-07T02:10:22.333Z,11.93
2017-01-07T02:11:21.945Z,12.23
2017-01-07T02:12:22.347Z,12.32
2017-01-07T02:13:22.305Z,12.03
2017-01-07T02:14:22.414Z,12.13
2017-01-07T02:15:22.026Z,12.23
2017-01-07T02:16:22.329Z,12.23
2017-01-07T02:17:22.385Z,12.13
2017-01-07T02:18:22.345Z,12.13
2017-01-07T02:19:22.651Z,12.23
2017-01-07T02:20:22.358Z,12.23
2017-01-07T02:21:22.418Z,12.23
2017-01-07T02:22:21.979Z,12.32
2017-01-07T02:23:22.385Z,12.32
2017-01-07T02:24:22.489Z,12.23
2017-01-07T02:25:22.103Z,12.23
2017-01-07T02:26:22.458Z,12.13
2017-01-07T02:27:22.463Z,12.23
2017-01-07T02:28:22.421Z,12.23
2017-01-07T02:29:22.478Z,12.32
2017-01-07T02:30:22.488Z,12.13
2017-01-07T02:31:22.097Z,12.03
2017-01-07T02:32:22.952Z,12.42
2017-01-07T02:33:22.117Z,12.03
2017-01-07T02:34:22.466Z,12.23
2017-01-07T02:35:22.473Z,12.03
2017-01-07T02:36:22.484Z,12.03
2017-01-07T02:37:22.144Z,12.32
2017-01-07T02:38:22.498Z,12.23
2017-01-07T02:39:22.509Z,12.23
2017-01-07T02:40:22.117Z,12.42
2017-01-07T02:41:22.176Z,12.23
2017-01-07T02:42:22.531Z,12.23
2017-01-07T02:43:22.493Z,12.23
2017-01-07T02:44:22.197Z,12.32
2017-01-07T02:45:22.155Z,12.23
2017-01-07T02:46:22.163Z,12.23
2017-01-07T02:47:22.618Z,12.03
2017-01-07T02:48:22.181Z,12.32
2017-01-07T02:49:22.582Z,12.23
2017-01-07T02:50:22.600Z,12.03
2017-01-07T02:51:22.650Z,12.51
2017-01-07T02:52:22.713Z,12.03
2017-01-07T02:53:22.219Z,12.03
2017-01-07T02:54:22.228Z,12.03
2017-01-07T02:55:22.628Z,12.42
2017-01-07T02:56:22.639Z,12.32
2017-01-07T02:57:22.353Z,12.32
2017-01-07T02:58:22.702Z,12.32
2017-01-07T02:59:22.317Z,12.13
2017-01-07T03:00:22.272Z,12.23
2017-01-07T03:01:22.282Z,12.23
2017-01-07T03:02:22.351Z,12.32
2017-01-07T03:03:22.346Z,12.32
2017-01-07T03:04:22.700Z,12.32
2017-01-07T03:05:22.707Z,12.32
2017-01-07T03:06:22.371Z,12.23
2017-01-07T03:07:22.385Z,11.83
2017-01-07T03:08:22.434Z,12.13
2017-01-07T03:09:22.344Z,12.23
2017-01-07T03:10:22.753Z,12.32
2017-01-07T03:11:22.755Z,12.23
2017-01-07T03:12:22.365Z,12.23
2017-01-07T03:13:22.822Z,12.13
2017-01-07T03:14:22.878Z,11.74
2017-01-07T03:15:22.836Z,11.93
2017-01-07T03:16:22.396Z,12.42
2017-01-07T03:17:22.850Z,12.03
2017-01-07T03:18:22.858Z,12.23
2017-01-07T03:19:22.422Z,12.03
2017-01-07T03:20:22.882Z,12.23
2017-01-07T03:21:22.437Z,12.23
2017-01-07T03:22:22.445Z,12.23
2017-01-07T03:23:22.453Z,12.32
2017-01-07T03:24:22.510Z,12.32
2017-01-07T03:25:22.469Z,12.03
2017-01-07T03:26:22.475Z,12.03
2017-01-07T03:27:22.534Z,11.83
2017-01-07T03:28:22.490Z,12.42
2017-01-07T03:29:22.549Z,12.32
2017-01-07T03:30:22.953Z,12.13
2017-01-07T03:31:22.520Z,12.32
2017-01-07T03:32:22.572Z,12.32
2017-01-07T03:33:22.925Z,12.22
2017-01-07T03:34:23.034Z,12.03
2017-01-07T03:35:22.599Z,12.32
2017-01-07T03:36:22.949Z,12.23
2017-01-07T03:37:22.611Z,12.32
2017-01-07T03:38:22.617Z,12.23
2017-01-07T03:39:23.027Z,12.41
2017-01-07T03:40:22.585Z,12.23
2017-01-07T03:41:22.691Z,12.23
2017-01-07T03:42:22.996Z,12.22
2017-01-07T03:43:22.656Z,12.23
2017-01-07T03:44:22.665Z,12.12
2017-01-07T03:45:23.122Z,12.23
2017-01-07T03:46:22.682Z,12.42
2017-01-07T03:47:22.637Z,12.42
2017-01-07T03:48:23.044Z,12.32
2017-01-07T03:49:23.050Z,12.23
2017-01-07T03:50:23.108Z,12.12
2017-01-07T03:51:23.067Z,12.22
2017-01-07T03:52:23.131Z,11.63
2017-01-07T03:53:23.132Z,11.64
2017-01-07T03:54:22.694Z,11.54
2017-01-07T03:55:23.196Z,12.32
2017-01-07T03:56:22.710Z,12.23
2017-01-07T03:57:22.719Z,11.63
2017-01-07T03:58:23.121Z,11.64
2017-01-07T03:59:23.128Z,11.83
2017-01-07T04:00:23.188Z,11.93
2017-01-07T04:01:23.050Z,11.83
2017-01-07T04:02:23.153Z,11.54
2017-01-07T04:03:23.161Z,11.93
2017-01-07T04:04:22.774Z,11.93
2017-01-07T04:05:22.780Z,11.93
2017-01-07T04:06:22.837Z,11.93
2017-01-07T04:07:23.246Z,12.22
2017-01-07T04:08:22.854Z,11.93
2017-01-07T04:09:23.263Z,11.73
2017-01-07T04:10:22.869Z,11.74
2017-01-07T04:11:23.224Z,11.54
2017-01-07T04:12:23.231Z,11.93
2017-01-07T04:13:22.891Z,11.83
2017-01-07T04:14:23.247Z,12.02
2017-01-07T04:15:22.860Z,11.93
2017-01-07T04:16:22.967Z,12.22
2017-01-07T04:17:23.271Z,11.83
2017-01-07T04:18:23.327Z,11.93
2017-01-07T04:19:23.286Z,11.54
2017-01-07T04:20:23.342Z,11.93
2017-01-07T04:21:22.905Z,11.74
2017-01-07T04:22:22.961Z,12.41
2017-01-07T04:23:22.972Z,11.83
2017-01-07T04:24:23.371Z,11.54
2017-01-07T04:25:22.942Z,11.93
2017-01-07T04:26:23.388Z,12.22
2017-01-07T04:27:23.346Z,12.22
2017-01-07T04:28:23.354Z,12.32
2017-01-07T04:29:23.366Z,11.93
2017-01-07T04:30:23.420Z,11.44
2017-01-07T04:31:23.034Z,11.74
2017-01-07T04:32:23.054Z,11.74
2017-01-07T04:33:23.394Z,12.23
2017-01-07T04:34:23.403Z,11.93
2017-01-07T04:35:23.460Z,11.93
2017-01-07T04:36:23.022Z,11.74
2017-01-07T04:37:23.427Z,11.64
2017-01-07T04:38:23.432Z,12.41
2017-01-07T04:39:23.442Z,11.93
2017-01-07T04:40:23.104Z,11.73
2017-01-07T04:41:23.063Z,11.73
2017-01-07T04:42:23.515Z,11.64
2017-01-07T04:43:23.100Z,11.93
2017-01-07T04:44:23.083Z,11.83
2017-01-07T04:45:23.538Z,11.63
2017-01-07T04:46:23.150Z,11.64
2017-01-07T04:47:23.554Z,11.63
2017-01-07T04:48:23.562Z,11.54
2017-01-07T04:49:23.569Z,11.83
2017-01-07T04:50:23.577Z,11.63
2017-01-07T04:51:23.139Z,11.73
2017-01-07T04:52:23.209Z,11.64
2017-01-07T04:53:23.154Z,11.54
2017-01-07T04:54:23.617Z,11.74
2017-01-07T04:55:23.272Z,11.63
2017-01-07T04:56:23.625Z,11.93
2017-01-07T04:57:23.237Z,11.93
2017-01-07T04:58:23.641Z,11.64
2017-01-07T04:59:23.648Z,11.93
2017-01-07T05:00:23.608Z,11.64
2017-01-07T05:01:23.316Z,11.54
2017-01-07T05:02:23.670Z,11.54
2017-01-07T05:03:23.732Z,11.83
2017-01-07T05:04:23.637Z,11.93
2017-01-07T05:05:23.248Z,11.93
2017-01-07T05:06:23.658Z,11.74
2017-01-07T05:07:23.708Z,11.83
2017-01-07T05:08:23.279Z,11.83
2017-01-07T05:09:23.279Z,11.73
2017-01-07T05:10:23.684Z,11.83
2017-01-07T05:11:23.694Z,11.83
2017-01-07T05:12:23.304Z,11.64
2017-01-07T05:13:23.805Z,11.83
2017-01-07T05:14:23.762Z,11.63
2017-01-07T05:15:23.819Z,11.63
2017-01-07T05:16:23.785Z,11.63
2017-01-07T05:17:23.737Z,11.64
2017-01-07T05:18:23.795Z,11.64
2017-01-07T05:19:23.458Z,11.83
2017-01-07T05:20:23.759Z,11.83
2017-01-07T05:21:23.869Z,11.74
2017-01-07T05:22:23.789Z,11.54
2017-01-07T05:23:23.789Z,11.63
2017-01-07T05:24:23.791Z,11.73
2017-01-07T05:25:23.856Z,11.73
2017-01-07T05:26:23.806Z,11.54
2017-01-07T05:27:23.868Z,11.73
2017-01-07T05:28:23.475Z,11.93
2017-01-07T05:29:23.431Z,11.64
2017-01-07T05:30:23.492Z,11.83
2017-01-07T05:31:23.548Z,11.83
2017-01-07T05:32:23.463Z,11.83
2017-01-07T05:33:23.925Z,11.93
2017-01-07T05:34:23.519Z,11.93
2017-01-07T05:35:23.875Z,11.73
2017-01-07T05:36:23.590Z,11.74
2017-01-07T05:37:23.495Z,11.54
2017-01-07T05:38:23.552Z,11.83
2017-01-07T05:39:24.006Z,11.64
2017-01-07T05:40:23.965Z,11.83
2017-01-07T05:41:23.576Z,11.64
2017-01-07T05:42:23.535Z,11.83
2017-01-07T05:43:23.993Z,11.54
2017-01-07T05:44:23.996Z,11.54
2017-01-07T05:45:24.002Z,11.64
2017-01-07T05:46:23.962Z,11.83
2017-01-07T05:47:23.966Z,11.83
2017-01-07T05:48:24.027Z,11.74
2017-01-07T05:49:23.588Z,11.93
2017-01-07T05:50:23.645Z,11.54
2017-01-07T05:51:23.652Z,11.83
2017-01-07T05:52:24.056Z,11.83
2017-01-07T05:53:24.013Z,11.74
2017-01-07T05:54:24.022Z,12.03
2017-01-07T05:55:23.635Z,11.74
2017-01-07T05:56:23.691Z,11.83
2017-01-07T05:57:23.700Z,12.03
2017-01-07T05:58:23.707Z,11.83
2017-01-07T05:59:24.060Z,11.93
2017-01-07T06:00:23.671Z,11.93
2017-01-07T06:01:24.076Z,11.83
2017-01-07T06:02:23.740Z,11.63
2017-01-07T06:03:24.090Z,11.93
2017-01-07T06:04:23.751Z,11.83
2017-01-07T06:05:24.106Z,11.93
2017-01-07T06:06:23.769Z,11.93
2017-01-07T06:07:24.173Z,11.73
2017-01-07T06:08:24.182Z,12.02
2017-01-07T06:09:24.138Z,11.74
2017-01-07T06:10:23.850Z,11.54
2017-01-07T06:11:24.209Z,11.63
2017-01-07T06:12:24.218Z,11.54
2017-01-07T06:13:23.827Z,11.93
2017-01-07T06:14:23.781Z,11.73
2017-01-07T06:15:24.234Z,11.63
2017-01-07T06:16:24.199Z,11.74
2017-01-07T06:17:24.301Z,11.74
2017-01-07T06:18:23.817Z,11.63
2017-01-07T06:19:23.846Z,11.54
2017-01-07T06:20:23.830Z,11.93
2017-01-07T06:21:24.231Z,11.93
2017-01-07T06:22:24.241Z,11.54
2017-01-07T06:23:23.852Z,11.54
2017-01-07T06:24:24.355Z,11.54
2017-01-07T06:25:24.812Z,11.54
2017-01-07T06:26:24.321Z,11.73
2017-01-07T06:27:23.883Z,11.83
2017-01-07T06:28:24.334Z,11.83
2017-01-07T06:29:24.000Z,11.83
2017-01-07T06:30:24.304Z,11.83
2017-01-07T06:31:23.914Z,11.73
2017-01-07T06:32:24.316Z,11.54
2017-01-07T06:33:23.982Z,11.83
2017-01-07T06:34:24.334Z,11.74
2017-01-07T06:35:24.392Z,11.74
2017-01-07T06:36:24.002Z,11.73
2017-01-07T06:37:23.960Z,11.93
2017-01-07T06:38:24.417Z,11.93
2017-01-07T06:39:24.421Z,12.02
2017-01-07T06:40:24.438Z,11.83
2017-01-07T06:41:23.995Z,12.41
2017-01-07T06:42:23.999Z,11.73
2017-01-07T06:43:24.403Z,11.93
2017-01-07T06:44:24.458Z,11.63
2017-01-07T06:45:24.468Z,11.73
2017-01-07T06:46:24.479Z,11.63
2017-01-07T06:47:24.087Z,11.63
2017-01-07T06:48:24.440Z,11.83
2017-01-07T06:49:24.453Z,11.63
2017-01-07T06:50:24.456Z,11.73
2017-01-07T06:51:24.119Z,11.93
2017-01-07T06:52:24.076Z,11.63
2017-01-07T06:53:24.530Z,11.54
2017-01-07T06:54:24.565Z,11.63
2017-01-07T06:55:24.103Z,11.54
2017-01-07T06:56:24.503Z,11.73
2017-01-07T06:57:24.560Z,11.54
2017-01-07T06:58:24.122Z,11.73
2017-01-07T06:59:24.576Z,11.54
2017-01-07T07:00:24.587Z,11.54
2017-01-07T07:01:24.591Z,11.73
2017-01-07T07:02:24.599Z,11.54
2017-01-07T07:03:24.210Z,11.54
2017-01-07T07:04:24.614Z,11.73
2017-01-07T07:05:24.572Z,11.54
2017-01-07T07:06:24.680Z,11.73
2017-01-07T07:07:24.241Z,11.73
2017-01-07T07:08:24.199Z,11.83
2017-01-07T07:09:24.702Z,11.83
2017-01-07T07:10:24.613Z,11.83
2017-01-07T07:11:24.668Z,11.93
2017-01-07T07:12:24.281Z,11.63
2017-01-07T07:13:24.633Z,11.83
2017-01-07T07:14:24.245Z,11.54
2017-01-07T07:15:24.702Z,11.93
2017-01-07T07:16:24.262Z,11.54
2017-01-07T07:17:24.714Z,11.64
2017-01-07T07:18:24.278Z,11.73
2017-01-07T07:19:24.284Z,11.83
2017-01-07T07:20:24.341Z,11.45
2017-01-07T07:21:24.300Z,11.54
2017-01-07T07:22:24.755Z,11.44
2017-01-07T07:23:24.362Z,11.45
2017-01-07T07:24:24.374Z,11.73
2017-01-07T07:25:24.728Z,11.73
2017-01-07T07:26:24.785Z,11.93
2017-01-07T07:27:24.791Z,11.25
2017-01-07T07:28:24.803Z,12.02
2017-01-07T07:29:24.809Z,11.83
2017-01-07T07:30:24.767Z,11.93
2017-01-07T07:31:24.821Z,11.83
2017-01-07T07:32:24.433Z,11.93
2017-01-07T07:33:24.837Z,11.83
2017-01-07T07:34:24.843Z,11.54
2017-01-07T07:35:24.855Z,11.54
2017-01-07T07:36:24.816Z,11.16
2017-01-07T07:37:24.869Z,10.97
2017-01-07T07:38:24.480Z,10.77
2017-01-07T07:39:24.884Z,10.49
2017-01-07T07:40:24.446Z,10.88
2017-01-07T07:41:24.849Z,10.49
2017-01-07T07:42:24.512Z,10.68
2017-01-07T07:43:24.471Z,10.49
2017-01-07T07:44:24.924Z,10.1
2017-01-07T07:45:24.930Z,10.2
2017-01-07T07:46:24.491Z,10.3
2017-01-07T07:47:24.552Z,9.63
2017-01-07T07:48:25.205Z,9.81
2017-01-07T07:49:24.518Z,10.21
2017-01-07T07:50:24.523Z,9.63
2017-01-07T07:51:24.532Z,9.91
2017-01-07T07:52:24.593Z,9.43
2017-01-07T07:53:24.996Z,9.34
2017-01-07T07:54:25.026Z,9.63
2017-01-07T07:55:24.963Z,9.82
2017-01-07T07:56:24.576Z,9.63
2017-01-07T07:57:24.709Z,9.24
2017-01-07T07:58:24.986Z,9.53
2017-01-07T07:59:24.649Z,9.63
2017-01-07T08:00:25.056Z,9.63
2017-01-07T08:01:24.614Z,9.53
2017-01-07T08:02:24.623Z,9.73
2017-01-07T08:03:25.026Z,9.72
2017-01-07T08:04:25.139Z,9.63
2017-01-07T08:05:24.650Z,9.53
2017-01-07T08:06:24.659Z,9.73
2017-01-07T08:07:25.059Z,9.24
2017-01-07T08:08:25.120Z,9.05
2017-01-07T08:09:25.077Z,9.53
2017-01-07T08:10:25.086Z,9.63
2017-01-07T08:11:24.698Z,9.05
2017-01-07T08:12:24.757Z,9.44
2017-01-07T08:13:25.111Z,9.34
2017-01-07T08:14:25.170Z,9.14
2017-01-07T08:15:25.179Z,9.14
2017-01-07T08:16:24.790Z,9.44
2017-01-07T08:17:25.143Z,8.95
2017-01-07T08:18:25.203Z,9.14
2017-01-07T08:19:24.765Z,9.24
2017-01-07T08:20:25.170Z,9.34
2017-01-07T08:21:25.231Z,9.24
2017-01-07T08:22:24.790Z,9.14
2017-01-07T08:23:25.245Z,9.15
2017-01-07T08:24:25.330Z,9.15
2017-01-07T08:25:24.865Z,9.05
2017-01-07T08:26:25.220Z,9.14
2017-01-07T08:27:25.295Z,8.95
2017-01-07T08:28:25.239Z,9.15
2017-01-07T08:29:25.299Z,9.15
2017-01-07T08:30:25.255Z,9.05
2017-01-07T08:31:25.312Z,9.14
2017-01-07T08:32:25.271Z,9.24
2017-01-07T08:33:25.329Z,9.34
2017-01-07T08:34:24.947Z,9.14
2017-01-07T08:35:25.297Z,9.25
2017-01-07T08:36:25.305Z,9.53
2017-01-07T08:37:25.019Z,9.63
2017-01-07T08:38:24.930Z,9.44
2017-01-07T08:39:25.381Z,9.34
2017-01-07T08:40:25.340Z,8.95
2017-01-07T08:41:25.350Z,8.95
2017-01-07T08:42:25.359Z,9.05
2017-01-07T08:43:25.019Z,9.34
2017-01-07T08:44:25.373Z,9.63
2017-01-07T08:45:24.984Z,9.44
2017-01-07T08:46:24.996Z,9.14
2017-01-07T08:47:25.446Z,9.15
2017-01-07T08:48:25.458Z,9.05
2017-01-07T08:49:25.463Z,9.05
2017-01-07T08:50:25.079Z,9.24
2017-01-07T08:51:25.530Z,8.95
2017-01-07T08:52:25.542Z,9.24
2017-01-07T08:53:25.056Z,9.05
2017-01-07T08:54:25.457Z,9.15
2017-01-07T08:55:25.069Z,9.44
2017-01-07T08:56:25.476Z,9.44
2017-01-07T08:57:25.583Z,9.63
2017-01-07T08:58:25.148Z,8.95
2017-01-07T08:59:25.156Z,9.05
2017-01-07T09:00:25.509Z,8.95
2017-01-07T09:01:25.517Z,9.25
2017-01-07T09:02:25.181Z,9.05
2017-01-07T09:03:25.586Z,9.83
2017-01-07T09:04:25.593Z,9.63
2017-01-07T09:05:25.653Z,9.05
2017-01-07T09:06:25.559Z,9.05
2017-01-07T09:07:25.622Z,8.95
2017-01-07T09:08:25.180Z,9.15
2017-01-07T09:09:25.289Z,9.44
2017-01-07T09:10:25.247Z,8.95
2017-01-07T09:11:25.205Z,9.24
2017-01-07T09:12:25.711Z,9.15
2017-01-07T09:13:25.670Z,8.76
2017-01-07T09:14:25.630Z,8.95
2017-01-07T09:15:25.635Z,9.15
2017-01-07T09:16:25.695Z,9.15
2017-01-07T09:17:25.309Z,9.15
2017-01-07T09:18:25.315Z,9.25
2017-01-07T09:19:25.722Z,9.25
2017-01-07T09:20:25.729Z,9.05
2017-01-07T09:21:25.293Z,9.05
2017-01-07T09:22:25.748Z,9.15
2017-01-07T09:23:25.311Z,9.15
2017-01-07T09:24:25.367Z,9.15
2017-01-07T09:25:25.328Z,8.76
2017-01-07T09:26:26.032Z,9.15
2017-01-07T09:27:25.741Z,9.25
2017-01-07T09:28:25.748Z,8.86
2017-01-07T09:29:25.413Z,9.25
2017-01-07T09:30:25.766Z,9.25
2017-01-07T09:31:25.428Z,8.86
2017-01-07T09:32:25.834Z,9.15
2017-01-07T09:33:25.444Z,8.76
2017-01-07T09:34:25.803Z,9.05
2017-01-07T09:35:25.463Z,9.15
2017-01-07T09:36:25.524Z,9.05
2017-01-07T09:37:25.826Z,9.15
2017-01-07T09:38:25.835Z,8.86
2017-01-07T09:39:25.450Z,9.06
2017-01-07T09:40:25.507Z,9.25
2017-01-07T09:41:25.469Z,9.25
2017-01-07T09:42:26.171Z,9.14
2017-01-07T09:43:25.880Z,9.05
2017-01-07T09:44:25.891Z,8.76
2017-01-07T09:45:25.504Z,8.76
2017-01-07T09:46:25.559Z,8.76
2017-01-07T09:47:25.966Z,9.05
2017-01-07T09:48:26.022Z,9.15
2017-01-07T09:49:25.984Z,9.25
2017-01-07T09:50:25.547Z,9.14
2017-01-07T09:51:25.999Z,9.05
2017-01-07T09:52:26.009Z,9.15
2017-01-07T09:53:25.967Z,9.05
2017-01-07T09:54:26.025Z,9.25
2017-01-07T09:55:25.987Z,9.05
2017-01-07T09:56:26.045Z,9.15
2017-01-07T09:57:26.003Z,9.25
2017-01-07T09:58:26.013Z,9.25
2017-01-07T09:59:25.726Z,9.24
2017-01-07T10:00:25.682Z,9.63
2017-01-07T10:01:25.643Z,9.24
2017-01-07T10:02:25.656Z,9.15
2017-01-07T10:03:26.104Z,9.34
2017-01-07T10:04:26.113Z,9.05
2017-01-07T10:05:25.779Z,9.25
2017-01-07T10:06:26.081Z,9.05
2017-01-07T10:07:25.695Z,9.15
2017-01-07T10:08:25.701Z,9.15
2017-01-07T10:09:26.107Z,9.15
2017-01-07T10:10:26.167Z,8.95
2017-01-07T10:11:25.826Z,9.05
2017-01-07T10:12:25.786Z,8.86
2017-01-07T10:13:25.745Z,8.76
2017-01-07T10:14:25.805Z,8.76
2017-01-07T10:15:26.209Z,8.86
2017-01-07T10:16:25.772Z,8.86
2017-01-07T10:17:26.179Z,8.86
2017-01-07T10:18:25.785Z,8.86
2017-01-07T10:19:26.192Z,9.15
2017-01-07T10:20:26.202Z,9.15
2017-01-07T10:21:26.212Z,9.15
2017-01-07T10:22:25.822Z,9.05
2017-01-07T10:23:25.884Z,9.16
2017-01-07T10:24:25.840Z,8.86
2017-01-07T10:25:26.245Z,8.86
2017-01-07T10:26:25.857Z,9.15
2017-01-07T10:27:26.313Z,9.05
2017-01-07T10:28:25.925Z,8.95
2017-01-07T10:29:25.933Z,9.05
2017-01-07T10:30:25.892Z,9.06
2017-01-07T10:31:26.346Z,8.76
2017-01-07T10:32:26.357Z,9.15
2017-01-07T10:33:25.920Z,9.15
2017-01-07T10:34:26.326Z,9.05
2017-01-07T10:35:25.991Z,9.05
2017-01-07T10:36:26.444Z,9.06
2017-01-07T10:37:26.349Z,8.86
2017-01-07T10:38:26.411Z,8.76
2017-01-07T10:39:25.975Z,9.05
2017-01-07T10:40:26.429Z,8.76
2017-01-07T10:41:26.042Z,8.95
2017-01-07T10:42:26.001Z,8.95
2017-01-07T10:43:26.058Z,8.95
2017-01-07T10:44:26.069Z,8.76
2017-01-07T10:45:26.027Z,8.95
2017-01-07T10:46:26.531Z,9.64
2017-01-07T10:47:26.044Z,9.05
2017-01-07T10:48:26.551Z,9.05
2017-01-07T10:49:26.112Z,9.05
2017-01-07T10:50:26.467Z,9.05
2017-01-07T10:51:26.081Z,9.05
2017-01-07T10:52:26.140Z,9.05
2017-01-07T10:53:26.098Z,9.15
2017-01-07T10:54:26.159Z,8.86
2017-01-07T10:55:26.514Z,8.86
2017-01-07T10:56:26.576Z,8.86
2017-01-07T10:57:26.187Z,8.95
2017-01-07T10:58:26.540Z,9.15
2017-01-07T10:59:26.203Z,9.25
2017-01-07T11:00:26.610Z,9.15
2017-01-07T11:01:26.373Z,9.15
2017-01-07T11:02:26.622Z,9.05
2017-01-07T11:03:26.586Z,9.05
2017-01-07T11:04:26.250Z,9.74
2017-01-07T11:05:26.206Z,9.05
2017-01-07T11:06:26.661Z,9.25
2017-01-07T11:07:26.275Z,8.95
2017-01-07T11:08:26.333Z,9.73
2017-01-07T11:09:26.639Z,9.53
2017-01-07T11:10:26.648Z,9.34
2017-01-07T11:11:26.308Z,9.53
2017-01-07T11:12:26.665Z,9.44
2017-01-07T11:13:26.276Z,9.05
2017-01-07T11:14:26.784Z,9.24
2017-01-07T11:15:26.691Z,9.34
2017-01-07T11:16:26.406Z,9.34
2017-01-07T11:17:26.708Z,9.05
2017-01-07T11:18:26.374Z,9.25
2017-01-07T11:19:26.779Z,9.15
2017-01-07T11:20:26.389Z,9.25
2017-01-07T11:21:26.794Z,9.25
2017-01-07T11:22:26.407Z,9.05
2017-01-07T11:23:26.810Z,9.63
2017-01-07T11:24:26.473Z,9.63
2017-01-07T11:25:26.382Z,9.53
2017-01-07T11:26:26.788Z,9.63
2017-01-07T11:27:26.799Z,8.95
2017-01-07T11:28:26.412Z,9.24
2017-01-07T11:29:26.417Z,9.25
2017-01-07T11:30:26.475Z,9.34
2017-01-07T11:31:26.537Z,9.64
2017-01-07T11:32:26.889Z,9.63
2017-01-07T11:33:26.452Z,9.53
2017-01-07T11:34:26.513Z,9.34
2017-01-07T11:35:26.772Z,9.05
2017-01-07T11:36:26.925Z,9.44
2017-01-07T11:37:26.883Z,9.05
2017-01-07T11:38:26.945Z,9.25
2017-01-07T11:39:26.556Z,9.15
2017-01-07T11:40:26.515Z,9.05
2017-01-07T11:41:27.021Z,9.15
2017-01-07T11:42:26.530Z,9.73
2017-01-07T11:43:26.938Z,9.44
2017-01-07T11:44:26.994Z,9.15
2017-01-07T11:45:26.557Z,8.86
2017-01-07T11:46:26.566Z,9.05
2017-01-07T11:47:27.071Z,9.15
2017-01-07T11:48:26.584Z,9.44
2017-01-07T11:49:27.036Z,9.73
2017-01-07T11:50:26.649Z,9.53
2017-01-07T11:51:27.006Z,9.05
2017-01-07T11:52:27.065Z,9.15
2017-01-07T11:53:27.074Z,9.34
2017-01-07T11:54:26.638Z,9.44
2017-01-07T11:55:27.149Z,9.54
2017-01-07T11:56:27.172Z,9.44
2017-01-07T11:57:26.714Z,9.44
2017-01-07T11:58:27.118Z,9.63
2017-01-07T11:59:26.734Z,9.14
2017-01-07T12:00:26.740Z,9.14
2017-01-07T12:01:26.750Z,9.05
2017-01-07T12:02:26.709Z,9.24
2017-01-07T12:03:27.213Z,9.24
2017-01-07T12:04:27.172Z,9.73
2017-01-07T12:05:27.130Z,9.53
2017-01-07T12:06:27.191Z,9.44
2017-01-07T12:07:27.147Z,9.44
2017-01-07T12:08:27.210Z,9.44
2017-01-07T12:09:26.817Z,9.44
2017-01-07T12:10:27.174Z,9.92
2017-01-07T12:11:27.232Z,9.82
2017-01-07T12:12:27.193Z,9.92
2017-01-07T12:13:27.132Z,10.11
2017-01-07T12:14:27.309Z,10.11
2017-01-07T12:15:27.222Z,10.31
2017-01-07T12:16:26.831Z,9.82
2017-01-07T12:17:27.284Z,10.02
2017-01-07T12:18:26.899Z,9.73
2017-01-07T12:19:27.299Z,9.44
2017-01-07T12:20:27.363Z,9.44
2017-01-07T12:21:26.875Z,9.53
2017-01-07T12:22:27.324Z,9.73
2017-01-07T12:23:26.989Z,9.72
2017-01-07T12:24:26.898Z,9.63
2017-01-07T12:25:27.305Z,9.73
2017-01-07T12:26:26.912Z,9.44
2017-01-07T12:27:27.319Z,9.63
2017-01-07T12:28:26.984Z,9.63
2017-01-07T12:29:26.990Z,9.34
2017-01-07T12:30:27.343Z,9.64
2017-01-07T12:31:27.354Z,9.64
2017-01-07T12:32:41.897Z,9.34
2017-01-07T12:33:26.973Z,9.44
2017-01-07T12:34:27.382Z,9.05
2017-01-07T12:35:26.993Z,9.05
2017-01-07T12:36:27.394Z,9.05
2017-01-07T12:37:27.010Z,9.05
2017-01-07T12:38:27.463Z,9.05
2017-01-07T12:39:27.378Z,9.05
2017-01-07T12:40:27.086Z,9.06
2017-01-07T12:41:27.045Z,9.25
2017-01-07T12:42:27.152Z,9.15
2017-01-07T12:43:27.061Z,9.54
2017-01-07T12:44:27.123Z,9.54
2017-01-07T12:45:27.525Z,9.54
2017-01-07T12:46:27.484Z,9.44
2017-01-07T12:47:27.494Z,9.15
2017-01-07T12:48:27.551Z,9.16
2017-01-07T12:49:27.511Z,9.06
2017-01-07T12:50:27.571Z,9.44
2017-01-07T12:51:27.185Z,9.64
2017-01-07T12:52:28.512Z,9.64
2017-01-07T12:53:27.546Z,9.64
2017-01-07T12:54:27.218Z,9.34
2017-01-07T12:55:27.615Z,9.05
2017-01-07T12:56:27.625Z,9.34
2017-01-07T12:57:27.186Z,9.25
2017-01-07T12:58:27.645Z,9.54
2017-01-07T12:59:27.652Z,9.34
2017-01-07T13:00:27.312Z,9.34
2017-01-07T13:01:27.273Z,9.64
2017-01-07T13:02:27.626Z,9.54